Time;durP1;ratioP1;P1;durP2;ratioP2;P2;SDS_P1;SDS_P2;PMS_P1;PMS_P2;Temp;Humidity;BMP_temperature;BMP_pressure;BME280_temperature;BME280_humidity;BME280_pressure;Samples;Min_cycle;Max_cycle;Signal;HPM_P1;HPM_P2
2021/04/09 00:00:11;;;;;;;5.03;3.42;;;3.30;99.90;;;;;;5032901;28;20544;-67
2021/04/09 00:02:42;;;;;;;3.97;2.40;;;3.20;99.90;;;;;;5033376;28;20205;-65
2021/04/09 00:05:11;;;;;;;3.33;2.97;;;3.20;99.90;;;;;;5032703;28;20182;-66
2021/04/09 00:07:38;;;;;;;4.15;2.72;;;3.30;99.90;;;;;;5032907;28;20212;-66
2021/04/09 00:10:08;;;;;;;3.83;2.85;;;3.20;99.90;;;;;;5067958;22;20229;-66
2021/04/09 00:12:37;;;;;;;5.80;3.55;;;3.30;99.90;;;;;;5035518;28;20284;-67
2021/04/09 00:15:06;;;;;;;3.17;2.35;;;3.20;99.90;;;;;;5035375;28;20204;-69
2021/04/09 00:17:33;;;;;;;9.50;4.95;;;3.30;99.90;;;;;;5017331;28;20213;-67
2021/04/09 00:20:01;;;;;;;5.28;2.90;;;3.20;99.90;;;;;;5036478;28;20657;-66
2021/04/09 00:22:28;;;;;;;7.43;3.55;;;3.20;99.90;;;;;;5035215;28;20177;-67
2021/04/09 00:24:55;;;;;;;2.80;2.60;;;3.20;99.90;;;;;;5035057;28;20196;-67
2021/04/09 00:27:23;;;;;;;5.20;3.55;;;3.10;99.90;;;;;;5035033;28;20205;-65
2021/04/09 00:29:50;;;;;;;4.15;2.65;;;3.20;99.90;;;;;;5035354;28;20194;-68
2021/04/09 00:32:19;;;;;;;10.88;2.88;;;3.10;99.90;;;;;;5035049;28;20188;-66
2021/04/09 00:34:46;;;;;;;4.75;3.00;;;3.10;99.90;;;;;;5034862;28;20596;-67
2021/04/09 00:37:13;;;;;;;2.72;2.50;;;3.10;99.90;;;;;;5035336;28;20578;-66
2021/04/09 00:39:40;;;;;;;3.88;2.35;;;3.10;99.90;;;;;;5034967;28;20185;-67
2021/04/09 00:42:07;;;;;;;3.35;3.05;;;3.10;99.90;;;;;;5035324;28;20578;-66
2021/04/09 00:44:34;;;;;;;3.42;2.33;;;3.10;99.90;;;;;;5035141;28;20271;-67
2021/04/09 00:47:02;;;;;;;4.85;3.40;;;3.10;99.90;;;;;;5035530;28;20628;-67
2021/04/09 00:49:30;;;;;;;3.83;2.78;;;3.10;99.90;;;;;;5040169;28;20565;-68
2021/04/09 00:51:58;;;;;;;5.05;3.42;;;3.00;99.90;;;;;;5023288;28;20193;-67
2021/04/09 00:54:25;;;;;;;4.03;3.28;;;3.00;99.90;;;;;;5041345;28;20217;-66
2021/04/09 00:56:53;;;;;;;5.60;4.22;;;2.90;99.90;;;;;;5025813;28;20219;-67
2021/04/09 00:59:21;;;;;;;5.25;3.15;;;2.90;99.90;;;;;;5041754;28;20170;-68
2021/04/09 01:01:48;;;;;;;3.35;3.05;;;2.90;99.90;;;;;;5044328;28;20177;-67
2021/04/09 01:04:16;;;;;;;6.78;3.53;;;2.80;99.90;;;;;;5042853;28;20173;-67
2021/04/09 01:06:44;;;;;;;9.60;3.95;;;2.90;99.90;;;;;;5042112;28;20237;-67
2021/04/09 01:09:11;;;;;;;3.80;3.22;;;2.80;99.90;;;;;;5023232;28;20201;-67
2021/04/09 01:11:38;;;;;;;4.80;3.80;;;2.80;99.90;;;;;;5041112;28;20173;-67
2021/04/09 01:14:05;;;;;;;4.18;3.47;;;2.90;99.90;;;;;;5034905;28;20239;-67
2021/04/09 01:16:46;;;;;;;4.80;3.17;;;2.90;99.90;;;;;;5034231;28;20244;-68
2021/04/09 01:19:31;;;;;;;5.32;3.78;;;2.90;99.90;;;;;;5034160;28;20209;-67
2021/04/09 01:22:02;;;;;;;3.72;2.92;;;2.90;99.90;;;;;;5016636;28;20208;-66
2021/04/09 01:25:01;;;;;;;4.47;3.05;;;2.90;99.90;;;;;;5034261;28;20268;-67
2021/04/09 01:27:51;;;;;;;3.33;2.17;;;2.90;99.90;;;;;;5034325;28;20210;-68
2021/04/09 01:30:52;;;;;;;3.60;2.95;;;2.90;99.90;;;;;;5034113;28;20276;-66
2021/04/09 01:33:25;;;;;;;6.50;4.47;;;2.90;99.90;;;;;;5034005;28;20297;-66
2021/04/09 01:35:57;;;;;;;4.07;2.67;;;2.90;99.90;;;;;;5034131;28;20693;-67
2021/04/09 01:38:29;;;;;;;6.30;3.05;;;2.90;99.90;;;;;;5032674;28;20217;-66
2021/04/09 01:40:58;;;;;;;4.68;2.70;;;3.00;99.90;;;;;;5033821;28;20224;-67
2021/04/09 01:43:25;;;;;;;10.07;3.78;;;2.90;99.90;;;;;;5033856;28;20260;-67
2021/04/09 01:45:54;;;;;;;5.20;2.83;;;2.90;99.90;;;;;;5033868;28;20174;-67
2021/04/09 01:48:22;;;;;;;5.47;2.55;;;2.90;99.90;;;;;;5016061;28;20312;-67
2021/04/09 01:50:51;;;;;;;4.25;3.17;;;2.90;99.90;;;;;;5016036;28;20185;-67
2021/04/09 01:53:22;;;;;;;4.50;2.28;;;2.90;99.90;;;;;;5037128;28;20194;-66
2021/04/09 01:55:51;;;;;;;11.45;3.60;;;2.80;99.90;;;;;;5037460;28;20267;-66
2021/04/09 01:58:20;;;;;;;7.22;2.45;;;2.80;99.90;;;;;;5039960;28;20756;-67
2021/04/09 02:00:47;;;;;;;4.05;3.33;;;2.70;99.90;;;;;;5039524;28;20711;-68
2021/04/09 02:03:19;;;;;;;3.33;2.72;;;2.70;99.90;;;;;;5039984;28;20244;-66
2021/04/09 02:05:48;;;;;;;2.38;2.17;;;2.70;99.90;;;;;;5039092;28;20243;-66
2021/04/09 02:08:16;;;;;;;3.35;3.10;;;2.70;99.90;;;;;;5043267;28;20208;-65
2021/04/09 02:10:44;;;;;;;4.03;2.63;;;2.70;99.90;;;;;;5026790;28;20240;-65
2021/04/09 02:13:11;;;;;;;4.63;3.00;;;2.60;99.90;;;;;;5042318;28;20211;-67
2021/04/09 02:15:38;;;;;;;3.25;2.92;;;2.60;99.90;;;;;;5042205;28;20188;-67
2021/04/09 02:18:06;;;;;;;2.63;2.33;;;2.70;99.90;;;;;;5043713;28;20229;-66
2021/04/09 02:20:33;;;;;;;8.57;3.42;;;2.70;99.90;;;;;;5037775;28;20176;-65
2021/04/09 02:23:01;;;;;;;2.70;2.10;;;2.70;99.90;;;;;;5036262;28;20173;-67
2021/04/09 02:25:28;;;;;;;3.00;2.65;;;2.60;99.90;;;;;;5037859;28;20196;-67
2021/04/09 02:27:56;;;;;;;9.93;3.42;;;2.60;99.90;;;;;;5039047;28;20669;-66
2021/04/09 02:30:24;;;;;;;5.72;3.95;;;2.60;99.90;;;;;;5040930;28;20178;-66
2021/04/09 02:32:51;;;;;;;2.90;2.70;;;2.70;99.90;;;;;;5040753;28;20193;-67
2021/04/09 02:35:19;;;;;;;3.85;3.42;;;2.70;99.90;;;;;;5040307;28;20252;-67
2021/04/09 02:37:50;;;;;;;3.55;3.35;;;2.60;99.90;;;;;;5036873;28;20205;-67
2021/04/09 02:40:22;;;;;;;3.60;3.22;;;2.60;99.90;;;;;;5040611;28;20184;-66
2021/04/09 02:42:52;;;;;;;4.72;2.92;;;2.50;99.90;;;;;;5041610;28;20208;-66
2021/04/09 02:45:22;;;;;;;3.60;3.10;;;2.60;99.90;;;;;;5041212;28;20213;-66
2021/04/09 02:47:49;;;;;;;4.10;2.13;;;2.50;99.90;;;;;;5041445;28;20212;-68
2021/04/09 02:50:24;;;;;;;3.92;2.95;;;2.50;99.90;;;;;;5039736;28;20194;-66
2021/04/09 02:52:53;;;;;;;4.60;3.38;;;2.60;99.90;;;;;;5038256;28;20196;-68
2021/04/09 02:55:25;;;;;;;5.40;3.08;;;2.50;99.90;;;;;;5038610;28;20656;-68
2021/04/09 02:57:55;;;;;;;5.72;3.15;;;2.50;99.90;;;;;;5020898;28;20217;-66
2021/04/09 03:00:23;;;;;;;4.68;3.03;;;2.50;99.90;;;;;;5038173;28;20184;-67
2021/04/09 03:02:51;;;;;;;5.32;3.40;;;2.50;99.90;;;;;;5038330;28;20517;-67
2021/04/09 03:05:20;;;;;;;4.97;2.78;;;2.50;99.90;;;;;;5039915;28;20682;-66
2021/04/09 03:07:48;;;;;;;2.80;2.05;;;2.50;99.90;;;;;;5040140;28;20210;-69
2021/04/09 03:10:18;;;;;;;3.08;2.28;;;2.40;99.90;;;;;;5039038;28;20610;-67
2021/04/09 03:12:46;;;;;;;3.30;2.63;;;2.40;99.90;;;;;;5039384;28;20227;-66
2021/04/09 03:15:17;;;;;;;3.63;2.95;;;2.40;99.90;;;;;;5034907;28;20261;-67
2021/04/09 03:17:52;;;;;;;3.20;2.15;;;2.40;99.90;;;;;;5035117;28;20732;-64
2021/04/09 03:20:20;;;;;;;5.00;3.00;;;2.40;99.90;;;;;;5034295;28;20764;-66
2021/04/09 03:22:47;;;;;;;5.38;3.67;;;2.40;99.90;;;;;;5035180;28;20174;-67
2021/04/09 03:25:14;;;;;;;6.00;3.30;;;2.40;99.90;;;;;;5017338;28;20192;-67
2021/04/09 03:27:42;;;;;;;7.07;3.05;;;2.40;99.90;;;;;;5035110;28;20205;-66
2021/04/09 03:30:11;;;;;;;5.57;2.83;;;2.40;99.90;;;;;;5036082;28;20639;-66
2021/04/09 03:32:39;;;;;;;4.30;3.63;;;2.40;99.90;;;;;;5034064;28;20220;-66
2021/04/09 03:35:07;;;;;;;6.45;3.13;;;2.40;99.90;;;;;;5034763;28;20177;-64
2021/04/09 03:37:34;;;;;;;9.35;4.75;;;2.40;99.90;;;;;;5034562;28;20209;-65
2021/04/09 03:40:02;;;;;;;6.65;3.38;;;2.40;99.90;;;;;;5035170;28;20219;-66
2021/04/09 03:42:29;;;;;;;4.53;2.33;;;2.40;99.90;;;;;;5016734;28;20201;-67
2021/04/09 03:44:56;;;;;;;3.15;2.65;;;2.40;99.90;;;;;;5035680;28;20173;-66
2021/04/09 03:47:24;;;;;;;6.57;3.60;;;2.30;99.90;;;;;;5034034;28;20212;-66
2021/04/09 03:49:51;;;;;;;4.00;2.55;;;2.30;99.90;;;;;;5034192;28;20180;-67
2021/04/09 03:52:18;;;;;;;4.00;3.63;;;2.20;99.90;;;;;;5034487;28;20193;-66
2021/04/09 03:54:46;;;;;;;8.88;3.35;;;2.20;99.90;;;;;;5034410;28;20229;-66
2021/04/09 03:57:13;;;;;;;3.00;2.70;;;2.20;99.90;;;;;;5035518;28;20210;-67
2021/04/09 03:59:40;;;;;;;4.70;3.08;;;2.20;99.90;;;;;;5034109;28;20187;-67
2021/04/09 04:02:08;;;;;;;5.43;2.72;;;2.10;99.90;;;;;;5034068;28;20192;-68
2021/04/09 04:04:36;;;;;;;5.40;2.30;;;2.20;99.90;;;;;;5034730;28;20182;-66
2021/04/09 04:07:04;;;;;;;1.77;1.67;;;2.10;99.90;;;;;;5017575;28;20217;-66
2021/04/09 04:09:31;;;;;;;4.65;3.97;;;2.10;99.90;;;;;;5034798;28;20197;-66
2021/04/09 04:11:59;;;;;;;3.03;2.20;;;2.10;99.90;;;;;;5034388;28;20178;-66
2021/04/09 04:14:26;;;;;;;6.57;3.05;;;2.10;99.90;;;;;;5034127;28;20685;-65
2021/04/09 04:16:54;;;;;;;3.03;2.75;;;2.10;99.90;;;;;;5034843;28;20220;-66
2021/04/09 04:19:21;;;;;;;7.40;3.97;;;2.10;99.90;;;;;;5034558;28;20642;-65
2021/04/09 04:21:51;;;;;;;4.38;2.78;;;2.00;99.90;;;;;;5034892;28;20220;-66
2021/04/09 04:24:18;;;;;;;3.40;3.00;;;2.00;99.90;;;;;;5034311;28;20228;-67
2021/04/09 04:26:45;;;;;;;7.03;2.50;;;2.10;99.90;;;;;;5018416;28;20317;-66
2021/04/09 04:29:12;;;;;;;6.05;2.72;;;2.10;99.90;;;;;;5013475;28;20530;-67
2021/04/09 04:31:40;;;;;;;7.53;3.33;;;2.10;99.90;;;;;;5031654;28;20627;-65
2021/04/09 04:34:07;;;;;;;2.70;1.90;;;2.10;99.90;;;;;;5031269;28;20220;-64
2021/04/09 04:36:34;;;;;;;3.88;3.47;;;2.10;99.90;;;;;;5031346;28;20707;-66
2021/04/09 04:39:03;;;;;;;3.75;2.47;;;2.10;99.90;;;;;;5031463;28;20265;-65
2021/04/09 04:41:31;;;;;;;4.25;3.10;;;2.10;99.90;;;;;;5031128;28;20185;-65
2021/04/09 04:43:58;;;;;;;2.80;2.00;;;2.10;99.90;;;;;;5031295;28;20186;-66
2021/04/09 04:46:25;;;;;;;4.03;3.63;;;2.10;99.90;;;;;;5031413;28;20606;-65
2021/04/09 04:48:53;;;;;;;4.65;3.55;;;2.20;99.90;;;;;;5031201;28;20234;-66
2021/04/09 04:51:20;;;;;;;2.75;2.15;;;2.20;99.90;;;;;;5031302;28;20181;-65
2021/04/09 04:53:47;;;;;;;3.85;3.33;;;2.30;99.90;;;;;;5031047;28;20194;-67
2021/04/09 04:56:15;;;;;;;7.47;4.30;;;2.40;99.90;;;;;;5034670;28;20178;-66
2021/04/09 04:58:42;;;;;;;4.13;3.53;;;2.70;99.90;;;;;;5035252;28;20191;-65
2021/04/09 05:01:09;;;;;;;7.00;3.67;;;3.10;99.90;;;;;;5035270;28;20607;-65
2021/04/09 05:03:36;;;;;;;3.63;3.10;;;3.80;99.90;;;;;;5035141;28;20181;-64
2021/04/09 05:06:04;;;;;;;4.90;3.35;;;4.40;99.90;;;;;;5034694;28;20206;-66
2021/04/09 05:08:31;;;;;;;3.55;3.25;;;4.60;99.90;;;;;;5034365;28;20714;-66
2021/04/09 05:10:58;;;;;;;4.20;3.03;;;4.20;99.90;;;;;;5034672;28;20212;-66
2021/04/09 05:13:26;;;;;;;4.25;3.55;;;3.70;99.90;;;;;;5034890;28;20712;-67
2021/04/09 05:15:53;;;;;;;5.07;4.13;;;3.50;99.90;;;;;;5035190;28;20606;-66
2021/04/09 05:18:21;;;;;;;9.88;4.03;;;3.30;99.90;;;;;;5035565;28;20689;-67
2021/04/09 05:20:48;;;;;;;4.55;3.67;;;3.10;99.90;;;;;;5035318;28;20213;-66
2021/04/09 05:23:16;;;;;;;4.30;3.53;;;3.00;99.90;;;;;;5035180;28;20189;-65
2021/04/09 05:25:43;;;;;;;5.63;5.13;;;3.00;99.90;;;;;;5021470;28;20216;-66
2021/04/09 05:28:10;;;;;;;6.80;4.20;;;2.90;99.90;;;;;;5041682;28;20217;-65
2021/04/09 05:30:38;;;;;;;4.70;2.03;;;2.90;99.90;;;;;;5040663;28;20177;-65
2021/04/09 05:33:06;;;;;;;6.53;3.90;;;2.90;99.90;;;;;;5042854;28;20178;-68
2021/04/09 05:35:33;;;;;;;3.78;3.47;;;2.90;99.90;;;;;;5025884;28;20292;-65
2021/04/09 05:38:00;;;;;;;10.02;3.90;;;3.00;99.90;;;;;;5043532;28;20205;-67
2021/04/09 05:40:27;;;;;;;6.50;3.15;;;3.10;99.90;;;;;;5041033;28;20293;-66
2021/04/09 05:42:58;;;;;;;7.28;5.45;;;3.10;99.90;;;;;;5042491;28;20584;-67
2021/04/09 05:45:26;;;;;;;13.70;3.85;;;3.10;99.90;;;;;;5043589;28;20201;-66
2021/04/09 05:47:54;;;;;;;6.32;4.63;;;3.10;99.90;;;;;;5041680;28;20213;-67
2021/04/09 05:50:21;;;;;;;5.53;3.35;;;3.20;99.90;;;;;;5036549;28;20256;-67
2021/04/09 05:52:49;;;;;;;6.85;4.65;;;3.30;99.90;;;;;;5037554;28;20240;-67
2021/04/09 05:55:17;;;;;;;9.02;4.70;;;3.40;99.90;;;;;;5037578;28;20255;-66
2021/04/09 05:57:44;;;;;;;6.00;3.92;;;3.60;99.90;;;;;;5022717;28;20221;-67
2021/04/09 06:00:13;;;;;;;5.65;5.10;;;3.70;99.90;;;;;;5041319;28;20204;-67
2021/04/09 06:02:40;;;;;;;5.13;4.30;;;3.80;99.90;;;;;;5040130;28;20189;-66
2021/04/09 06:05:10;;;;;;;5.82;3.97;;;3.90;99.90;;;;;;5015688;28;20221;-66
2021/04/09 06:07:38;;;;;;;5.97;4.30;;;4.00;99.90;;;;;;5032430;28;20201;-67
2021/04/09 06:10:07;;;;;;;4.05;3.72;;;4.10;99.90;;;;;;5025765;23;20313;-68
2021/04/09 06:12:36;;;;;;;4.68;3.88;;;4.20;99.90;;;;;;5021485;28;20198;-68
2021/04/09 06:15:06;;;;;;;10.00;4.80;;;4.30;99.90;;;;;;5012872;28;20252;-68
2021/04/09 06:17:33;;;;;;;4.57;4.10;;;4.40;99.90;;;;;;5013468;28;20710;-69
2021/04/09 06:20:01;;;;;;;8.27;4.53;;;4.40;99.90;;;;;;5013317;28;20663;-68
2021/04/09 06:22:29;;;;;;;6.00;5.28;;;4.40;99.90;;;;;;5013217;28;20181;-67
2021/04/09 06:24:56;;;;;;;6.10;4.68;;;4.40;99.90;;;;;;5012815;28;20186;-67
2021/04/09 06:27:24;;;;;;;5.65;4.90;;;4.40;99.90;;;;;;5012679;28;20214;-69
2021/04/09 06:29:51;;;;;;;5.90;4.65;;;4.40;99.90;;;;;;5012632;28;20217;-67
2021/04/09 06:32:18;;;;;;;8.52;5.50;;;4.60;99.90;;;;;;5012967;28;20187;-67
2021/04/09 06:34:46;;;;;;;4.20;3.00;;;4.70;99.90;;;;;;5012567;28;20245;-68
2021/04/09 06:37:13;;;;;;;15.90;4.28;;;4.70;99.90;;;;;;5012771;28;20210;-66
2021/04/09 06:39:41;;;;;;;5.22;3.67;;;4.70;99.90;;;;;;5013000;28;20197;-66
2021/04/09 06:42:09;;;;;;;7.68;5.20;;;4.70;99.90;;;;;;5012882;28;20189;-67
2021/04/09 06:44:37;;;;;;;4.95;4.07;;;4.70;99.90;;;;;;5012536;28;20181;-68
2021/04/09 06:47:07;;;;;;;8.18;5.63;;;4.80;99.90;;;;;;5013390;28;20210;-69
2021/04/09 06:49:34;;;;;;;10.52;4.68;;;4.90;99.90;;;;;;5013797;28;20252;-68
2021/04/09 06:52:01;;;;;;;7.15;5.25;;;5.10;99.90;;;;;;5013661;28;20190;-71
2021/04/09 06:54:29;;;;;;;7.40;4.70;;;5.50;99.90;;;;;;5013206;28;20206;-68
2021/04/09 06:56:59;;;;;;;5.22;4.03;;;5.70;99.90;;;;;;5013059;28;20205;-66
2021/04/09 06:59:31;;;;;;;7.65;5.00;;;5.80;99.90;;;;;;5013276;28;20186;-69
2021/04/09 07:02:01;;;;;;;6.63;4.32;;;5.80;99.90;;;;;;5013213;28;20273;-66
2021/04/09 07:04:28;;;;;;;8.30;5.30;;;5.70;99.90;;;;;;5013741;28;20181;-68
2021/04/09 07:06:55;;;;;;;5.63;4.78;;;6.00;99.90;;;;;;5012927;28;20224;-67
2021/04/09 07:09:23;;;;;;;9.82;5.40;;;6.00;99.90;;;;;;5012619;28;20445;-67
2021/04/09 07:11:52;;;;;;;6.43;5.35;;;6.20;99.90;;;;;;5012629;28;20166;-67
2021/04/09 07:14:40;;;;;;;6.47;4.85;;;6.30;99.90;;;;;;5012628;28;20671;-68
2021/04/09 07:17:07;;;;;;;8.77;4.57;;;6.40;99.90;;;;;;5011680;28;20229;-66
2021/04/09 07:20:15;;;;;;;8.80;5.55;;;6.40;99.90;;;;;;5011802;28;20186;-67
2021/04/09 07:22:44;;;;;;;10.10;5.57;;;6.30;99.90;;;;;;5013049;28;20175;-68
2021/04/09 07:25:14;;;;;;;7.68;4.40;;;6.20;99.90;;;;;;5012474;28;20178;-66
2021/04/09 07:27:43;;;;;;;10.00;6.22;;;6.20;99.90;;;;;;5008867;28;20633;-66
2021/04/09 07:30:16;;;;;;;8.55;4.25;;;6.40;99.90;;;;;;4993007;28;20611;-66
2021/04/09 07:32:44;;;;;;;7.43;5.50;;;6.60;99.90;;;;;;5005164;28;20606;-67
2021/04/09 07:35:14;;;;;;;5.18;4.47;;;6.80;99.90;;;;;;5005763;28;20269;-66
2021/04/09 07:37:56;;;;;;;7.60;5.45;;;7.00;99.90;;;;;;4985636;28;20218;-66
2021/04/09 07:40:28;;;;;;;7.70;5.07;;;7.00;99.90;;;;;;4991890;28;20201;-66
2021/04/09 07:42:55;;;;;;;6.05;4.93;;;7.20;99.90;;;;;;4992341;28;20226;-67
2021/04/09 07:45:25;;;;;;;7.90;5.15;;;7.50;99.90;;;;;;4992001;28;20187;-66
2021/04/09 07:47:55;;;;;;;8.65;5.68;;;7.60;99.90;;;;;;4992007;28;20230;-68
2021/04/09 07:50:35;;;;;;;8.90;5.93;;;7.60;99.90;;;;;;4991696;28;20183;-66
2021/04/09 07:53:03;;;;;;;8.82;5.60;;;7.60;99.90;;;;;;4991295;28;20241;-68
2021/04/09 07:55:31;;;;;;;7.55;6.03;;;7.70;99.90;;;;;;4991591;28;20225;-67
2021/04/09 07:58:17;;;;;;;8.13;4.85;;;7.80;99.90;;;;;;4991684;28;20655;-66
2021/04/09 08:00:47;;;;;;;7.90;5.38;;;7.90;99.90;;;;;;4991731;28;20342;-66
2021/04/09 08:03:30;;;;;;;5.82;4.22;;;8.20;99.90;;;;;;4991293;28;20277;-67
2021/04/09 08:06:08;;;;;;;6.25;5.20;;;8.30;99.90;;;;;;4991571;28;20286;-69
2021/04/09 08:08:37;;;;;;;10.35;5.10;;;8.50;99.90;;;;;;4982527;28;20234;-66
2021/04/09 08:11:28;;;;;;;5.72;4.43;;;8.70;99.90;;;;;;4991259;28;20195;-67
2021/04/09 08:14:07;;;;;;;5.05;4.55;;;8.70;99.90;;;;;;4986554;28;20282;-68
2021/04/09 08:16:40;;;;;;;7.50;4.18;;;8.60;99.90;;;;;;4971753;28;20723;-67
2021/04/09 08:19:11;;;;;;;7.65;4.15;;;8.60;99.90;;;;;;4971797;28;20218;-67
2021/04/09 08:21:46;;;;;;;11.77;5.22;;;8.70;99.90;;;;;;4971929;28;20194;-69
2021/04/09 08:24:14;;;;;;;8.63;6.72;;;8.90;99.90;;;;;;4971718;28;20191;-68
2021/04/09 08:26:42;;;;;;;4.55;4.05;;;9.20;99.90;;;;;;4971730;28;20214;-69
2021/04/09 08:29:13;;;;;;;6.90;4.30;;;9.50;99.90;;;;;;4972193;28;20564;-67
2021/04/09 08:31:41;;;;;;;6.75;5.10;;;9.60;99.90;;;;;;4975682;28;20195;-67
2021/04/09 08:34:11;;;;;;;6.25;5.47;;;9.80;99.90;;;;;;4975875;28;20663;-68
2021/04/09 08:36:39;;;;;;;7.15;4.35;;;10.00;99.90;;;;;;4975249;28;20217;-69
2021/04/09 08:39:09;;;;;;;6.85;5.25;;;10.10;99.90;;;;;;4979729;28;20253;-68
2021/04/09 08:41:37;;;;;;;8.07;4.82;;;10.20;99.90;;;;;;4998505;28;20186;-68
2021/04/09 08:44:06;;;;;;;4.78;3.85;;;10.30;99.90;;;;;;5011673;28;20182;-70
2021/04/09 08:46:34;;;;;;;8.50;4.70;;;10.20;99.90;;;;;;5014262;28;20182;-67
2021/04/09 08:49:03;;;;;;;4.85;4.45;;;10.30;99.90;;;;;;5014270;28;20510;-67
2021/04/09 08:51:31;;;;;;;12.68;5.30;;;10.40;99.90;;;;;;5015173;28;20256;-68
2021/04/09 08:54:17;;;;;;;7.00;4.50;;;10.30;99.90;;;;;;5013613;28;20700;-68
2021/04/09 08:56:44;;;;;;;7.90;5.18;;;10.30;99.90;;;;;;5010305;28;20297;-67
2021/04/09 08:59:11;;;;;;;6.70;4.37;;;10.30;99.90;;;;;;4993830;28;20194;-70
2021/04/09 09:01:39;;;;;;;7.50;4.75;;;10.50;99.90;;;;;;4994025;28;20527;-70
2021/04/09 09:04:34;;;;;;;8.85;5.03;;;10.70;99.90;;;;;;4992857;28;20189;-66
2021/04/09 09:07:02;;;;;;;5.72;3.88;;;10.60;99.90;;;;;;4958524;28;20915;-69
2021/04/09 09:09:31;;;;;;;5.32;4.78;;;10.60;99.90;;;;;;4976563;28;20254;-68
2021/04/09 09:12:00;;;;;;;7.22;4.72;;;10.60;99.90;;;;;;4978365;28;20369;-70
2021/04/09 09:14:42;;;;;;;4.93;3.60;;;10.60;99.90;;;;;;4975948;28;20314;-68
2021/04/09 09:17:37;;;;;;;5.53;4.27;;;10.80;99.90;;;;;;4975122;28;20445;-70
2021/04/09 09:20:19;;;;;;;7.82;4.82;;;10.80;99.90;;;;;;4974503;28;20912;-69
2021/04/09 09:22:57;;;;;;;7.60;4.57;;;11.10;99.90;;;;;;4974371;28;20270;-68
2021/04/09 09:25:32;;;;;;;7.78;5.10;;;10.90;99.90;;;;;;4974583;28;20433;-67
2021/04/09 09:28:00;;;;;;;6.10;4.57;;;10.90;99.90;;;;;;4974538;28;20301;-67
2021/04/09 09:30:35;;;;;;;7.50;4.47;;;11.00;99.90;;;;;;4973567;28;20796;-69
2021/04/09 09:33:22;;;;;;;5.97;3.85;;;10.90;99.90;;;;;;4977585;28;20179;-68
2021/04/09 09:36:04;;;;;;;7.40;5.40;;;10.90;99.90;;;;;;4978351;28;20195;-70
2021/04/09 09:38:53;;;;;;;6.20;5.07;;;10.90;99.90;;;;;;4978584;28;20235;-68
2021/04/09 09:41:38;;;;;;;9.63;5.70;;;11.10;99.90;;;;;;4983948;28;20470;-70
2021/04/09 09:44:30;;;;;;;7.40;5.10;;;11.50;99.90;;;;;;5013700;28;20415;-66
2021/04/09 09:46:59;;;;;;;7.30;5.27;;;11.70;99.90;;;;;;5013141;28;20498;-69
2021/04/09 09:49:29;;;;;;;5.10;4.27;;;11.80;99.90;;;;;;5012813;28;20425;-69
2021/04/09 09:51:57;;;;;;;5.60;4.93;;;11.90;99.90;;;;;;5012947;28;20424;-69
2021/04/09 09:54:28;;;;;;;7.13;4.53;;;12.10;99.90;;;;;;5012689;28;20475;-69
2021/04/09 09:56:56;;;;;;;8.60;4.60;;;12.20;99.90;;;;;;5013308;28;20430;-67
2021/04/09 09:59:26;;;;;;;6.80;4.97;;;12.40;99.90;;;;;;5013240;28;20399;-69
2021/04/09 10:01:58;;;;;;;5.87;4.87;;;12.30;99.90;;;;;;5012209;28;20970;-68
2021/04/09 10:04:26;;;;;;;7.53;5.03;;;12.40;99.90;;;;;;5012672;28;20423;-70
2021/04/09 10:06:54;;;;;;;7.93;6.00;;;12.50;99.90;;;;;;5010414;28;20435;-68
2021/04/09 10:09:26;;;;;;;6.47;4.70;;;12.60;99.90;;;;;;5011546;28;20445;-68
2021/04/09 10:11:55;;;;;;;6.63;4.87;;;12.70;99.90;;;;;;5013267;28;20425;-68
2021/04/09 10:14:22;;;;;;;6.27;5.07;;;12.90;99.90;;;;;;5012099;28;20492;-71
2021/04/09 10:16:49;;;;;;;6.50;4.63;;;12.70;99.90;;;;;;5012900;28;20411;-68
2021/04/09 10:19:19;;;;;;;6.73;5.30;;;12.70;99.90;;;;;;5012468;28;20437;-68
2021/04/09 10:21:46;;;;;;;9.13;6.20;;;12.70;99.90;;;;;;5012695;28;20417;-70
2021/04/09 10:24:37;;;;;;;6.67;5.50;;;12.50;99.90;;;;;;5012196;28;20425;-69
2021/04/09 10:27:06;;;;;;;7.77;5.40;;;12.30;99.90;;;;;;5013190;28;20847;-68
2021/04/09 10:29:36;;;;;;;10.57;6.00;;;12.50;99.90;;;;;;5012375;28;20415;-70
2021/04/09 10:32:05;;;;;;;5.87;5.00;;;12.80;99.90;;;;;;5012321;28;20507;-67
2021/04/09 10:34:34;;;;;;;6.30;5.07;;;12.90;99.90;;;;;;5011640;28;20440;-69
2021/04/09 10:37:05;;;;;;;6.30;4.77;;;13.20;99.90;;;;;;5012977;28;20423;-67
2021/04/09 10:39:33;;;;;;;6.70;5.47;;;13.10;99.90;;;;;;5006781;28;20438;-67
2021/04/09 10:42:02;;;;;;;9.10;5.70;;;13.10;99.90;;;;;;5012494;28;20400;-69
2021/04/09 10:44:31;;;;;;;6.17;4.60;;;12.80;99.90;;;;;;5012234;28;20779;-68
2021/04/09 10:47:01;;;;;;;5.30;4.80;;;12.80;99.90;;;;;;5012292;28;20491;-69
2021/04/09 10:49:30;;;;;;;6.67;4.17;;;12.90;99.90;;;;;;5012329;28;20862;-69
2021/04/09 10:51:59;;;;;;;9.30;4.83;;;13.10;99.90;;;;;;5011941;28;20524;-68
2021/04/09 10:54:29;;;;;;;6.17;4.83;;;13.10;99.90;;;;;;5012004;28;20948;-68
2021/04/09 10:56:59;;;;;;;4.87;4.30;;;12.70;99.90;;;;;;5013524;28;20539;-68
2021/04/09 10:59:28;;;;;;;6.27;4.43;;;12.70;99.90;;;;;;4997466;28;20442;-69
2021/04/09 11:01:55;;;;;;;5.60;4.53;;;12.80;99.90;;;;;;4988715;28;20873;-71
2021/04/09 11:04:24;;;;;;;6.33;3.93;;;12.90;99.90;;;;;;4987721;28;20501;-69
2021/04/09 11:06:53;;;;;;;4.90;4.40;;;12.90;99.90;;;;;;4987779;28;20511;-69
2021/04/09 11:09:21;;;;;;;9.43;5.50;;;12.70;99.90;;;;;;4986654;28;20453;-70
2021/04/09 11:11:48;;;;;;;5.53;4.63;;;12.60;99.90;;;;;;4987224;28;20444;-69
2021/04/09 11:14:19;;;;;;;11.23;5.50;;;12.80;99.90;;;;;;4987648;28;20462;-68
2021/04/09 11:16:51;;;;;;;7.00;4.70;;;13.00;99.90;;;;;;4989303;28;20431;-69
2021/04/09 11:19:38;;;;;;;8.10;5.97;;;13.20;99.90;;;;;;4992197;28;20437;-68
2021/04/09 11:22:07;;;;;;;4.20;3.80;;;13.00;99.90;;;;;;4992181;28;20431;-69
2021/04/09 11:24:38;;;;;;;3.83;3.43;;;13.00;99.90;;;;;;4992174;28;20401;-70
2021/04/09 11:27:27;;;;;;;9.93;5.50;;;13.00;99.90;;;;;;4991821;28;20427;-68
2021/04/09 11:30:15;;;;;;;5.73;3.60;;;13.00;99.90;;;;;;4992171;28;20397;-70
2021/04/09 11:32:44;;;;;;;6.10;5.33;;;13.20;99.90;;;;;;4991657;28;20432;-70
2021/04/09 11:35:13;;;;;;;4.50;4.07;;;13.20;99.90;;;;;;4992254;28;20440;-69
2021/04/09 11:37:45;;;;;;;5.87;4.10;;;13.30;99.90;;;;;;4992205;28;20446;-69
2021/04/09 11:40:14;;;;;;;4.83;4.00;;;13.50;99.90;;;;;;4992471;28;20401;-69
2021/04/09 11:42:41;;;;;;;7.77;4.43;;;13.60;99.90;;;;;;4990493;28;20429;-68
2021/04/09 11:45:16;;;;;;;4.47;4.07;;;13.70;99.90;;;;;;4991837;28;20397;-67
2021/04/09 11:47:44;;;;;;;5.13;3.57;;;13.70;99.90;;;;;;4989973;28;20457;-69
2021/04/09 11:50:17;;;;;;;4.30;3.53;;;13.80;99.90;;;;;;4991719;28;20430;-67
2021/04/09 11:52:56;;;;;;;6.60;3.70;;;13.80;99.90;;;;;;4991408;28;20425;-68
2021/04/09 11:55:27;;;;;;;5.87;4.00;;;14.10;99.90;;;;;;4991410;28;20803;-68
2021/04/09 11:57:54;;;;;;;4.93;3.93;;;14.10;99.90;;;;;;4991393;28;20416;-69
2021/04/09 12:00:26;;;;;;;7.33;4.83;;;14.00;99.90;;;;;;4991589;28;20415;-69
2021/04/09 12:02:57;;;;;;;10.90;3.70;;;13.80;99.90;;;;;;4991196;28;20868;-69
2021/04/09 12:05:26;;;;;;;4.17;3.50;;;14.00;99.90;;;;;;4995914;28;20500;-69
2021/04/09 12:07:54;;;;;;;3.70;3.13;;;14.20;99.90;;;;;;4994521;28;20457;-69
2021/04/09 12:10:23;;;;;;;6.07;3.80;;;14.20;99.90;;;;;;5080350;23;20520;-66
2021/04/09 12:12:51;;;;;;;4.70;3.53;;;14.30;99.90;;;;;;5081326;28;20385;-65
2021/04/09 12:15:21;;;;;;;3.60;2.90;;;14.40;99.90;;;;;;5090659;28;20991;-65
2021/04/09 12:17:49;;;;;;;4.47;4.07;;;14.40;99.90;;;;;;5088249;28;20453;-65
2021/04/09 12:20:19;;;;;;;4.97;3.57;;;14.30;99.90;;;;;;5060108;28;20426;-65
2021/04/09 12:22:47;;;;;;;5.50;4.53;;;14.20;99.90;;;;;;5065311;28;20420;-66
2021/04/09 12:25:15;;;;;;;5.17;3.77;;;14.20;99.90;;;;;;5078406;28;20899;-64
2021/04/09 12:27:46;;;;;;;5.40;3.83;;;14.20;99.90;;;;;;5069944;28;20799;-65
2021/04/09 12:30:16;;;;;;;5.53;4.20;;;14.50;99.90;;;;;;5062723;28;20783;-64
2021/04/09 12:32:44;;;;;;;5.23;4.67;;;14.60;99.90;;;;;;5067115;28;20473;-68
2021/04/09 12:35:13;;;;;;;6.40;4.47;;;14.70;99.90;;;;;;5079295;28;20502;-66
2021/04/09 12:37:40;;;;;;;5.10;4.50;;;14.70;99.90;;;;;;5061410;28;20432;-67
2021/04/09 12:40:08;;;;;;;7.43;5.00;;;14.60;99.90;;;;;;5070132;28;20429;-64
2021/04/09 12:42:36;;;;;;;10.00;5.57;;;14.60;99.90;;;;;;5076928;28;20386;-65
2021/04/09 12:45:05;;;;;;;6.10;3.93;;;14.40;99.90;;;;;;5085993;28;20920;-65
2021/04/09 12:47:32;;;;;;;4.07;2.93;;;14.30;99.90;;;;;;5068563;28;20520;-65
2021/04/09 12:49:59;;;;;;;6.63;5.03;;;14.30;99.90;;;;;;5062242;28;20995;-66
2021/04/09 12:52:27;;;;;;;8.63;4.90;;;14.20;99.90;;;;;;5063863;28;20476;-67
2021/04/09 12:54:54;;;;;;;4.27;3.87;;;14.40;99.90;;;;;;5062253;28;20527;-65
2021/04/09 12:57:22;;;;;;;7.63;5.37;;;14.40;99.90;;;;;;5062026;28;20455;-65
2021/04/09 12:59:49;;;;;;;4.93;4.43;;;14.20;99.90;;;;;;5065979;28;20991;-66
2021/04/09 13:02:31;;;;;;;7.63;4.93;;;14.30;99.90;;;;;;5073224;28;20430;-65
2021/04/09 13:04:58;;;;;;;5.90;3.80;;;14.40;99.90;;;;;;5057484;28;20386;-66
2021/04/09 13:07:26;;;;;;;5.17;4.07;;;14.50;99.90;;;;;;5054834;28;20437;-66